Flight Track Log - Related Links

Times and Time Zones

All times are in EDT time to prevent confusion due to time zone crossing. See the XOJ552 flight status page for this flight to view local times or setup timezone preferences in your user account.

Time Position Orientation Groundspeed Altitude Reporting Facility
EDT Latitude Longitude Course Direction KTS MPH feet Rate Location/Type
Sat 05:40:10 PM 32.8333 -96.8333 121° Southeast 164 189 1,800  Level Dallas / Fort Worth TRACON
Sat 05:40:46 PM 32.8167 -96.8000 121° Southeast 197 227 3,500 3,438 Climbing Dallas / Fort Worth TRACON
Sat 05:41:46 PM 32.7833 -96.7333 121° Southeast 264 304 7,300 3,750 Climbing Dallas / Fort Worth TRACON
Sat 05:42:46 PM 32.8333 -96.7000 29° Northeast 275 316 11,000 2,660 Climbing Dallas / Fort Worth TRACON
Sat 05:45:09 PM 32.9908 -96.8561 320° Northwest 308 354 16,300 1,782 Climbing Fort Worth Center
Sat 05:46:08 PM 33.0742 -96.8333 13° North 289 333 17,000 1,714 Climbing Fort Worth Center
Sat 05:47:08 PM 33.1719 -96.7756 26° Northeast 320 368 19,700 2,430 Climbing Fort Worth Center
Sat 05:48:09 PM 33.2594 -96.7056 34° Northeast 355 409 21,900 2,529 Climbing Fort Worth Center
Sat 05:49:09 PM 33.3569 -96.6200 36° Northeast 400 460 24,800 2,750 Climbing Fort Worth Center
Sat 05:50:09 PM 33.4544 -96.5419 34° Northeast 414 476 27,400 2,450 Climbing Fort Worth Center
Sat 05:51:09 PM 33.5561 -96.4564 35° Northeast 426 490 29,700 2,218 Climbing Fort Worth Center
Sat 05:52:08 PM 33.6578 -96.3728 34° Northeast 433 498 31,800 1,916 Climbing Fort Worth Center
Sat 05:53:08 PM 33.7656 -96.2817 35° Northeast 454 522 33,500 1,736 Climbing Fort Worth Center
Sat 05:54:09 PM 33.8731 -96.1903 35° Northeast 466 536 35,300 1,636 Climbing Fort Worth Center
Sat 05:55:09 PM 33.9850 -96.0958 35° Northeast 471 542 36,800 1,261 Climbing Fort Worth Center
Sat 05:56:08 PM 34.0758 -96.0219 34° Northeast 481 554 37,800 1,200 Climbing Fort Worth Center
Sat 05:57:09 PM 34.1958 -95.9194 35° Northeast 481 554 39,200 1,140 Climbing Fort Worth Center
Sat 05:58:09 PM 34.3094 -95.8219 35° Northeast 493 567 40,100 900 Climbing Fort Worth Center
Sat 05:59:09 PM 34.4269 -95.7242 34° Northeast 500 575 41,000 450 Climbing Fort Worth Center
Sat 06:00:09 PM 34.5444 -95.6211 36° Northeast 505 581 41,000  Level Fort Worth Center
Sat 06:01:09 PM 34.6786 -95.5097 34° Northeast 524 603 41,000  Level Fort Worth Center
Sat 06:02:09 PM 34.7958 -95.4058 36° Northeast 529 609 41,000  Level Fort Worth Center
Sat 06:03:09 PM 34.9044 -95.2894 41° Northeast 523 602 41,000  Level Fort Worth Center
Sat 06:05:17 PM 35.0044 -94.9456 70° East 511 588 41,000  Level Memphis Center
Sat 06:06:17 PM 35.0361 -94.7622 78° East 527 606 41,000  Level Memphis Center
Sat 06:07:17 PM 35.0681 -94.5583 79° East 552 635 41,000  Level Memphis Center
Sat 06:08:17 PM 35.1011 -94.3775 77° East 552 635 41,000  Level Memphis Center
Sat 06:09:17 PM 35.1319 -94.1961 78° East 552 635 41,000  Level Memphis Center
Sat 06:10:17 PM 35.1603 -94.0144 79° East 547 629 41,000  Level Memphis Center
Sat 06:11:17 PM 35.1906 -93.8303 79° East 542 624 41,000  Level Memphis Center
Sat 06:12:17 PM 35.2206 -93.6461 79° East 542 624 41,000  Level Memphis Center
Sat 06:13:17 PM 35.2503 -93.4667 78° East 542 624 41,000  Level Memphis Center
Sat 06:14:17 PM 35.2794 -93.3025 78° East 542 624 41,000  Level Memphis Center
Sat 06:15:18 PM 35.3086 -93.1178 79° East 542 624 41,000  Level Memphis Center
Sat 06:16:17 PM 35.3375 -92.9328 79° East 549 632 41,000  Level Memphis Center
Sat 06:17:17 PM 35.3661 -92.7506 79° East 549 632 41,000  Level Memphis Center
Sat 06:18:17 PM 35.3906 -92.5600 81° East 555 639 41,000  Level Memphis Center
Sat 06:19:17 PM 35.4186 -92.3775 79° East 555 639 41,000  Level Memphis Center
Sat 06:20:17 PM 35.4464 -92.1972 79° East 550 633 41,000  Level Memphis Center
Sat 06:21:17 PM 35.4742 -92.0117 80° East 544 626 41,000  Level Memphis Center
Sat 06:22:17 PM 35.5014 -91.8286 80° East 544 626 41,000  Level Memphis Center
Sat 06:23:17 PM 35.5286 -91.6481 79° East 544 626 41,000  Level Memphis Center
Sat 06:24:17 PM 35.5553 -91.4672 80° East 544 626 41,000  Level Memphis Center
Sat 06:25:17 PM 35.5861 -91.2683 79° East 539 620 41,000  Level Memphis Center
Sat 06:26:17 PM 35.6081 -91.0900 81° East 539 620 41,000  Level Memphis Center
Sat 06:27:17 PM 35.6339 -90.9292 79° East 539 620 41,000  Level Memphis Center
Sat 06:28:17 PM 35.6575 -90.7531 81° East 528 608 41,000  Level Memphis Center
Sat 06:29:17 PM 35.6808 -90.5742 81° East 528 608 41,000  Level Memphis Center
Sat 06:30:17 PM 35.6978 -90.3981 83° East 521 600 41,000  Level Memphis Center
Sat 06:31:17 PM 35.7206 -90.2164 81° East 521 600 41,000  Level Memphis Center
Sat 06:32:17 PM 35.7453 -90.0400 80° East 521 600 41,000  Level Memphis Center
Sat 06:33:17 PM 35.7678 -89.8606 81° East 521 600 41,000  Level Memphis Center
Sat 06:34:17 PM 35.7897 -89.6814 81° East 521 600 41,000  Level Memphis Center
Sat 06:35:17 PM 35.8136 -89.5044 80° East 521 600 41,000  Level Memphis Center
Sat 06:36:17 PM 35.8353 -89.3225 82° East 521 600 41,000  Level Memphis Center
Sat 06:37:17 PM 35.8564 -89.1431 82° East 526 605 41,000  Level Memphis Center
Sat 06:38:17 PM 35.8797 -88.9658 81° East 526 605 41,000  Level Memphis Center
Sat 06:39:17 PM 35.9047 -88.7836 80° East 526 605 41,000  Level Memphis Center
Sat 06:40:17 PM 35.9253 -88.6089 82° East 526 605 41,000  Level Memphis Center
Sat 06:41:17 PM 35.9456 -88.4289 82° East 526 605 41,000  Level Memphis Center
Sat 06:42:17 PM 35.9675 -88.2514 81° East 526 605 41,000  Level Memphis Center
Sat 06:43:17 PM 35.9894 -88.0789 81° East 516 594 41,000  Level Memphis Center
Sat 06:44:17 PM 36.0092 -87.9039 82° East 511 588 41,000  Level Memphis Center
Sat 06:45:17 PM 36.0283 -87.7211 83° East 524 603 41,000  Level Memphis Center
Sat 06:46:17 PM 36.0472 -87.5306 83° East 524 603 41,000  Level Memphis Center
Sat 06:47:17 PM 36.0658 -87.3553 82° East 524 603 41,000  Level Memphis Center
Sat 06:48:17 PM 36.0844 -87.1775 83° East 524 603 41,000  Level Memphis Center
Sat 06:49:17 PM 36.1047 -87.0019 82° East 524 603 41,000  Level Memphis Center
Sat 06:50:17 PM 36.1311 -86.8261 79° East 524 603 41,000  Level Memphis Center
Sat 06:51:17 PM 36.1633 -86.6447 78° East 532 612 41,000  Level Memphis Center
Sat 06:52:17 PM 36.1933 -86.4686 78° East 527 606 41,000  Level Memphis Center
Sat 06:53:17 PM 36.2214 -86.3000 78° East 509 586 41,000  Level Memphis Center
Sat 06:54:17 PM 36.2531 -86.1233 77° East 509 586 41,000  Level Memphis Center
Sat 06:56:03 PM 36.2956 -85.8422 79° East 516 594 41,000  Level Indianapolis Center
Sat 06:57:05 PM 36.3286 -85.6531 78° East 517 595 41,000  Level Indianapolis Center
Sat 06:58:06 PM 36.3547 -85.4783 79° East 513 590 41,000  Level Indianapolis Center
Sat 06:59:07 PM 36.3822 -85.3075 79° East 505 581 41,000  Level Indianapolis Center
Sat 07:00:08 PM 36.4078 -85.1347 80° East 501 577 41,000  Level Indianapolis Center
Sat 07:01:09 PM 36.4322 -84.9628 80° East 502 578 41,000  Level Indianapolis Center
Sat 07:02:10 PM 36.4575 -84.7967 79° East 488 562 41,000  Level Indianapolis Center
Sat 07:03:11 PM 36.4814 -84.6289 80° East 490 564 41,000 -197 Level Indianapolis Center
Sat 07:04:12 PM 36.5047 -84.4644 80° East 483 556 40,600 -780 Descending Indianapolis Center
Sat 07:05:14 PM 36.5314 -84.2756 80° East 477 549 39,400 -1,073 Descending Indianapolis Center
Sat 07:06:15 PM 36.5533 -84.1117 80° East 481 554 38,400 -984 Descending Indianapolis Center
Sat 07:07:16 PM 36.5769 -83.9458 80° East 486 559 37,400 -984 Descending Indianapolis Center
Sat 07:08:17 PM 36.6028 -83.7803 79° East 488 562 36,400 -984 Descending Indianapolis Center
Sat 07:09:18 PM 36.6258 -83.6139 80° East 487 560 35,400 -689 Descending Indianapolis Center
Sat 07:10:19 PM 36.6475 -83.4475 81° East 488 562 35,000 -197 Descending Indianapolis Center
Sat 07:11:20 PM 36.6706 -83.2753 80° East 502 578 35,000 -98 Level Indianapolis Center
Sat 07:12:21 PM 36.6936 -83.1072 80° East 497 572 34,800 -1,328 Descending Indianapolis Center
Sat 07:13:22 PM 36.7117 -82.9425 82° East 487 560 32,300 -2,164 Descending Indianapolis Center
Sat 07:14:23 PM 36.6803 -82.7406 101° East 519 597 30,400 -1,721 Descending Indianapolis Center
Sat 07:15:24 PM 36.6383 -82.5772 108° East 503 579 28,800 -1,526 Descending Indianapolis Center
Sat 07:16:17 PM 36.6006 -82.4356 108° East 490 564 27,500 -1,540 Descending Atlanta Center
Sat 07:17:17 PM 36.5608 -82.2811 108° East 474 545 25,900 -1,650 Descending Atlanta Center
Sat 07:18:17 PM 36.5211 -82.1297 108° East 464 534 24,200 -1,650 Descending Atlanta Center
Sat 07:19:17 PM 36.4833 -81.9833 108° East 454 522 22,600 -1,550 Descending Atlanta Center
Sat 07:20:17 PM 36.4517 -81.8525 107° East 448 516 21,100 -1,550 Descending Atlanta Center
Sat 07:21:17 PM 36.4117 -81.7117 109° East 434 499 19,500 -1,600 Descending Atlanta Center
Sat 07:22:17 PM 36.3775 -81.5708 107° East 423 487 17,900 -1,300 Descending Atlanta Center
Sat 07:23:17 PM 36.3372 -81.4306 110° East 409 471 16,900 -1,150 Descending Atlanta Center
Sat 07:24:17 PM 36.3031 -81.3028 108° East 401 461 15,600 -1,300 Descending Atlanta Center
Sat 07:25:17 PM 36.2689 -81.1778 109° East 386 444 14,300 -1,250 Descending Atlanta Center
Sat 07:26:17 PM 36.2347 -81.0553 109° East 380 437 13,100 -1,200 Descending Atlanta Center
Sat 07:27:17 PM 36.2006 -80.9331 109° East 380 437 11,900 -1,000 Descending Atlanta Center
Sat 07:28:17 PM 36.1703 -80.8133 107° East 380 437 11,100 -500 Descending Atlanta Center
Sat 07:29:17 PM 36.1381 -80.7017 110° East 360 414 10,900 -100 Descending Atlanta Center
Sat 07:30:17 PM 36.1228 -80.5994 100° East 344 396 10,900 -700 Level Atlanta Center
Sat 07:31:17 PM 36.0925 -80.4903 109° East 317 365 9,500 -1,700 Descending Atlanta Center
Sat 07:32:17 PM 36.0625 -80.3964 112° Southeast 306 352 7,500 -1,900 Descending Atlanta Center
Sat 07:33:17 PM 36.0372 -80.3153 111° Southeast 287 330 5,700 -1,950 Descending Atlanta Center
Sat 07:34:17 PM 36.0097 -80.2294 112° Southeast 275 316 3,600 -1,400 Descending Atlanta Center
Sat 07:35:17 PM 35.9781 -80.1564 118° Southeast 261 300 2,900 -350 Descending Atlanta Center
Sat 07:36:17 PM 35.9742 -80.0950 94° East 198 228 2,900 50 Level Atlanta Center
Sat 07:37:17 PM 36.0039 -80.0500 51° Northeast 150 173 3,000 100 Climbing Atlanta Center
Sat 07:39:00 PM 36.1000 -79.9333 15° North  Level FlightAware Approximate
Sat 07:46:00 PM 36.1013 -79.9411 15° North  Level Estimated
Sat 07:47:00 PM 36.1000 -79.9333 15° North  Level FlightAware Approximate
Sat 07:48:00 PM 36.1013 -79.9411 15° North  Level Estimated
Sat 07:49:00 PM 36.1000 -79.9333 15° North  Level FlightAware Approximate

Login

Don't have an account? Register now (free) for customized features, flight alerts, and more!